Time;durP1;ratioP1;P1;durP2;ratioP2;P2;SDS_P1;SDS_P2;PMS_P1;PMS_P2;Temp;Humidity;BMP_temperature;BMP_pressure;BME280_temperature;BME280_humidity;BME280_pressure;Samples;Min_cycle;Max_cycle;Signal;HPM_P1;HPM_P2
2021/01/27 00:01:42;;;;;;;4.70;3.25;;;6.50;79.50;;;;;;5071978;28;20128;-81
2021/01/27 00:04:08;;;;;;;4.47;3.35;;;6.50;79.50;;;;;;5054573;28;20067;-80
2021/01/27 00:06:33;;;;;;;5.05;3.70;;;6.50;79.50;;;;;;5038477;28;20041;-80
2021/01/27 00:08:59;;;;;;;4.53;3.55;;;6.40;79.40;;;;;;5024705;28;20036;-80
2021/01/27 00:11:25;;;;;;;5.65;3.55;;;6.40;79.40;;;;;;5045022;28;20476;-80
2021/01/27 00:13:51;;;;;;;4.55;3.30;;;6.40;79.40;;;;;;5044402;28;20041;-80
2021/01/27 00:16:16;;;;;;;4.28;3.25;;;6.40;79.40;;;;;;5054098;28;20039;-82
2021/01/27 00:18:42;;;;;;;4.57;3.45;;;6.40;79.40;;;;;;5029686;28;20035;-81
2021/01/27 00:21:08;;;;;;;5.00;3.20;;;6.40;79.40;;;;;;5049101;28;20484;-79
2021/01/27 00:23:34;;;;;;;4.75;3.50;;;6.40;79.40;;;;;;5022777;28;20396;-79
2021/01/27 00:25:59;;;;;;;5.47;3.90;;;6.40;80.10;;;;;;5028281;28;20132;-81
2021/01/27 00:28:25;;;;;;;4.13;3.08;;;6.40;79.50;;;;;;5018111;28;20071;-79
2021/01/27 00:30:51;;;;;;;4.30;3.28;;;6.40;79.50;;;;;;5048961;28;20036;-79
2021/01/27 00:33:17;;;;;;;5.38;3.40;;;6.40;79.50;;;;;;5052979;28;20438;-79
2021/01/27 00:35:48;;;;;;;4.70;3.47;;;6.40;79.50;;;;;;5047137;28;20064;-80
2021/01/27 00:38:23;;;;;;;4.60;3.53;;;6.40;79.50;;;;;;5048535;28;20048;-79
2021/01/27 00:40:50;;;;;;;4.55;3.33;;;6.30;79.40;;;;;;5053445;28;20081;-79
2021/01/27 00:43:17;;;;;;;5.63;3.50;;;6.30;79.40;;;;;;5055057;28;20060;-79
2021/01/27 00:45:42;;;;;;;5.90;4.07;;;6.30;79.40;;;;;;5050771;28;20029;-79
2021/01/27 00:48:09;;;;;;;4.90;3.53;;;6.30;79.50;;;;;;5031502;28;20050;-79
2021/01/27 00:50:36;;;;;;;5.57;4.00;;;6.30;79.40;;;;;;5058398;28;20376;-79
2021/01/27 00:53:02;;;;;;;4.47;3.28;;;6.30;79.50;;;;;;5027155;28;20488;-79
2021/01/27 00:55:31;;;;;;;4.32;3.13;;;6.30;79.50;;;;;;5030042;28;20599;-79
2021/01/27 00:58:00;;;;;;;4.18;3.30;;;6.30;79.40;;;;;;5049768;28;20039;-79
2021/01/27 01:00:35;;;;;;;4.82;3.45;;;6.30;79.50;;;;;;5040528;28;20028;-79
2021/01/27 01:03:05;;;;;;;4.63;3.47;;;6.30;79.50;;;;;;5057024;28;20024;-79
2021/01/27 01:05:36;;;;;;;5.00;3.67;;;6.30;79.40;;;;;;5026592;28;20023;-79
2021/01/27 01:08:03;;;;;;;4.80;3.50;;;6.20;79.40;;;;;;5040308;28;20123;-84
2021/01/27 01:10:38;;;;;;;4.57;3.33;;;6.20;79.40;;;;;;5055486;28;20017;-79
2021/01/27 01:13:07;;;;;;;4.78;3.50;;;6.20;79.40;;;;;;5064374;28;20470;-79
2021/01/27 01:15:33;;;;;;;4.82;3.20;;;6.30;79.50;;;;;;5035595;28;20067;-80
2021/01/27 01:18:00;;;;;;;4.90;3.53;;;6.20;79.40;;;;;;5039865;28;20048;-79
2021/01/27 01:20:26;;;;;;;5.40;3.42;;;6.20;79.40;;;;;;5020336;28;20032;-80
2021/01/27 01:22:58;;;;;;;5.57;3.78;;;6.20;79.40;;;;;;5013542;28;20033;-79
2021/01/27 01:25:26;;;;;;;4.32;3.15;;;6.20;79.40;;;;;;5065062;28;20020;-80
2021/01/27 01:27:52;;;;;;;4.80;3.47;;;6.20;79.40;;;;;;5039745;28;20036;-79
2021/01/27 01:30:27;;;;;;;4.60;3.45;;;6.20;79.40;;;;;;5020264;28;20033;-79
2021/01/27 01:32:54;;;;;;;5.57;3.55;;;6.20;79.50;;;;;;5056735;28;20028;-80
2021/01/27 01:35:21;;;;;;;4.07;3.03;;;6.20;79.50;;;;;;5073815;28;20590;-80
2021/01/27 01:37:47;;;;;;;4.68;2.85;;;6.20;79.40;;;;;;5022719;28;20053;-79
2021/01/27 01:40:32;;;;;;;4.47;3.22;;;6.20;79.40;;;;;;5051856;28;20044;-79
2021/01/27 01:43:26;;;;;;;4.32;3.25;;;6.20;79.50;;;;;;5036520;28;20025;-79
2021/01/27 01:45:52;;;;;;;3.72;2.88;;;6.20;79.50;;;;;;5042326;28;20053;-79
2021/01/27 01:48:32;;;;;;;4.30;3.10;;;6.20;79.40;;;;;;5038062;28;20397;-80
2021/01/27 01:51:22;;;;;;;4.72;3.50;;;6.20;79.50;;;;;;5039322;28;20029;-79
2021/01/27 01:53:51;;;;;;;4.22;3.10;;;6.10;79.40;;;;;;5050002;28;20033;-80
2021/01/27 01:56:24;;;;;;;4.45;2.90;;;6.10;79.40;;;;;;5038058;28;20024;-79
2021/01/27 01:58:56;;;;;;;3.40;2.85;;;6.10;79.50;;;;;;5056064;28;20060;-80
2021/01/27 02:01:23;;;;;;;3.88;3.08;;;6.10;79.50;;;;;;5020342;28;20087;-80
2021/01/27 02:03:50;;;;;;;4.22;3.10;;;6.10;79.50;;;;;;5047062;28;20032;-82
2021/01/27 02:06:17;;;;;;;3.95;3.05;;;6.10;79.50;;;;;;5022559;28;20032;-80
2021/01/27 02:08:46;;;;;;;4.20;2.90;;;6.10;79.50;;;;;;5037386;28;20044;-80
2021/01/27 02:11:16;;;;;;;3.58;2.90;;;6.10;79.50;;;;;;5029671;28;20055;-79
2021/01/27 02:13:57;;;;;;;4.13;3.30;;;6.10;79.50;;;;;;5050657;28;20033;-81
2021/01/27 02:16:33;;;;;;;4.10;2.80;;;6.10;79.50;;;;;;5035769;28;20123;-79
2021/01/27 02:19:16;;;;;;;4.22;3.13;;;6.10;79.50;;;;;;5047373;28;20126;-80
2021/01/27 02:22:00;;;;;;;3.72;2.83;;;6.10;79.50;;;;;;5039346;28;20056;-79
2021/01/27 02:25:03;;;;;;;3.35;2.88;;;6.10;79.50;;;;;;5036028;28;20032;-79
2021/01/27 02:27:50;;;;;;;3.83;2.92;;;6.10;79.60;;;;;;5037328;28;20021;-79
2021/01/27 02:30:23;;;;;;;3.90;2.70;;;6.10;79.50;;;;;;5050763;28;20381;-79
2021/01/27 02:33:13;;;;;;;3.75;2.92;;;6.10;79.50;;;;;;5050938;28;20021;-80
2021/01/27 02:35:48;;;;;;;3.92;3.00;;;6.10;79.60;;;;;;5049403;28;20032;-80
2021/01/27 02:38:30;;;;;;;4.22;3.05;;;6.00;80.10;;;;;;5051132;28;20045;-80
2021/01/27 02:41:24;;;;;;;3.90;2.78;;;6.10;79.60;;;;;;5039619;28;20029;-80
2021/01/27 02:43:56;;;;;;;4.18;2.85;;;6.10;79.70;;;;;;5032297;28;20052;-80
2021/01/27 02:46:42;;;;;;;4.90;2.97;;;6.00;79.50;;;;;;5033869;28;20381;-80
2021/01/27 02:49:12;;;;;;;3.28;2.67;;;6.00;79.60;;;;;;5027462;28;20032;-79
2021/01/27 02:52:03;;;;;;;4.15;3.17;;;6.00;79.60;;;;;;5037662;28;20023;-80
2021/01/27 02:54:49;;;;;;;3.40;2.58;;;6.10;79.70;;;;;;5038245;28;20035;-81
2021/01/27 02:57:24;;;;;;;3.72;2.80;;;6.10;79.70;;;;;;5045649;28;20025;-81
2021/01/27 03:00:05;;;;;;;4.30;2.75;;;6.10;79.60;;;;;;5038254;28;20029;-80
2021/01/27 03:02:44;;;;;;;3.60;2.60;;;6.00;79.60;;;;;;5024888;28;20032;-80
2021/01/27 03:05:19;;;;;;;4.05;2.90;;;6.00;79.50;;;;;;5068316;28;20024;-82
2021/01/27 03:07:50;;;;;;;3.35;2.50;;;6.00;79.50;;;;;;5051696;28;20024;-80
2021/01/27 03:10:21;;;;;;;4.05;2.78;;;6.10;79.60;;;;;;5037366;28;20028;-80
2021/01/27 03:12:53;;;;;;;3.25;2.53;;;6.00;79.50;;;;;;5033817;28;20122;-79
2021/01/27 03:15:21;;;;;;;4.40;3.00;;;6.00;79.50;;;;;;5018885;28;20052;-80
2021/01/27 03:17:55;;;;;;;3.22;2.60;;;6.00;79.50;;;;;;5044964;28;20035;-79
2021/01/27 03:20:36;;;;;;;3.63;2.60;;;6.00;79.60;;;;;;5051688;28;20021;-79
2021/01/27 03:23:17;;;;;;;3.00;2.40;;;6.00;79.60;;;;;;5065109;28;20017;-80
2021/01/27 03:25:52;;;;;;;3.17;2.40;;;6.00;79.50;;;;;;5048629;28;20036;-80
2021/01/27 03:28:26;;;;;;;3.38;2.45;;;6.00;79.50;;;;;;5054685;28;20033;-80
2021/01/27 03:30:53;;;;;;;3.00;2.50;;;6.00;79.50;;;;;;5049436;28;20222;-80
2021/01/27 03:33:23;;;;;;;3.30;2.60;;;6.00;79.50;;;;;;5042721;28;20099;-79
2021/01/27 03:35:53;;;;;;;3.00;2.40;;;6.00;79.60;;;;;;5035753;28;20102;-80
2021/01/27 03:38:31;;;;;;;2.70;2.08;;;6.00;79.50;;;;;;5043580;28;20041;-80
2021/01/27 03:41:02;;;;;;;3.17;2.60;;;6.00;79.60;;;;;;5049885;28;20469;-79
2021/01/27 03:43:28;;;;;;;2.55;2.15;;;6.00;79.50;;;;;;5048038;28;20021;-80
2021/01/27 03:46:00;;;;;;;2.95;2.45;;;6.00;79.50;;;;;;5052260;28;20437;-80
2021/01/27 03:49:01;;;;;;;2.85;2.22;;;6.00;79.50;;;;;;5043619;28;20028;-79
2021/01/27 03:51:38;;;;;;;2.55;1.92;;;6.00;79.60;;;;;;5035277;28;20029;-80
2021/01/27 03:54:07;;;;;;;2.72;2.17;;;6.00;79.50;;;;;;5031910;28;20035;-81
2021/01/27 03:56:46;;;;;;;2.70;2.40;;;6.00;79.50;;;;;;5036607;28;20129;-80
2021/01/27 03:59:13;;;;;;;2.10;1.90;;;6.00;79.60;;;;;;5053943;28;20033;-80
2021/01/27 04:01:53;;;;;;;2.70;2.20;;;6.00;79.50;;;;;;5031379;28;20412;-80
2021/01/27 04:04:20;;;;;;;3.08;2.30;;;6.00;79.60;;;;;;5053674;28;20029;-80
2021/01/27 04:06:46;;;;;;;3.08;2.03;;;6.00;79.50;;;;;;5054291;28;20464;-80
2021/01/27 04:09:13;;;;;;;2.75;2.08;;;6.00;79.50;;;;;;5065673;28;20109;-80
2021/01/27 04:11:39;;;;;;;3.65;2.55;;;6.00;79.50;;;;;;5034150;28;20033;-81
2021/01/27 04:14:05;;;;;;;2.83;2.20;;;6.00;79.50;;;;;;5008779;28;20055;-80
2021/01/27 04:16:31;;;;;;;2.63;2.15;;;6.00;79.60;;;;;;5000451;28;20469;-79
2021/01/27 04:18:59;;;;;;;2.50;2.30;;;6.00;79.50;;;;;;5032388;28;20052;-80
2021/01/27 04:21:25;;;;;;;2.58;2.13;;;6.00;79.60;;;;;;5002581;28;20029;-81
2021/01/27 04:23:50;;;;;;;2.95;2.55;;;6.00;79.60;;;;;;5051474;28;20083;-79
2021/01/27 04:26:17;;;;;;;2.40;2.15;;;6.00;79.50;;;;;;5040804;28;20056;-80
2021/01/27 04:28:43;;;;;;;2.60;2.10;;;6.00;79.60;;;;;;5037046;28;20044;-80
2021/01/27 04:31:09;;;;;;;3.10;2.40;;;6.00;79.60;;;;;;5038104;28;20056;-79
2021/01/27 04:33:35;;;;;;;3.22;2.25;;;6.00;79.50;;;;;;5039936;28;20060;-79
2021/01/27 04:36:01;;;;;;;2.88;2.42;;;6.00;79.50;;;;;;5041304;28;20028;-80
2021/01/27 04:38:27;;;;;;;2.47;2.25;;;6.00;79.50;;;;;;5047829;28;20059;-80
2021/01/27 04:40:55;;;;;;;2.60;2.10;;;6.00;79.50;;;;;;5021298;28;20036;-80
2021/01/27 04:43:22;;;;;;;2.50;2.15;;;6.00;79.50;;;;;;5030182;28;20033;-82
2021/01/27 04:45:54;;;;;;;3.17;2.10;;;6.00;79.50;;;;;;5036291;28;20028;-79
2021/01/27 04:48:31;;;;;;;2.30;2.00;;;6.00;79.50;;;;;;5048017;28;20037;-82
2021/01/27 04:51:04;;;;;;;3.35;2.10;;;6.00;79.60;;;;;;5055316;28;20040;-80
2021/01/27 04:53:51;;;;;;;2.55;1.90;;;6.00;79.50;;;;;;5050537;28;20032;-79
2021/01/27 04:56:29;;;;;;;2.40;1.95;;;6.00;79.60;;;;;;5070644;28;20036;-80
2021/01/27 04:59:03;;;;;;;2.30;1.88;;;6.00;79.50;;;;;;5056219;28;20041;-80
2021/01/27 05:01:53;;;;;;;2.30;2.08;;;6.00;79.50;;;;;;5031098;28;20059;-81
2021/01/27 05:04:25;;;;;;;1.90;1.70;;;6.00;79.60;;;;;;5047647;28;20024;-80
2021/01/27 05:06:58;;;;;;;3.35;2.17;;;6.00;79.50;;;;;;5040570;28;20032;-80
2021/01/27 05:09:38;;;;;;;2.67;2.00;;;6.00;79.50;;;;;;5051985;28;20024;-80
2021/01/27 05:12:07;;;;;;;2.22;1.98;;;6.00;79.60;;;;;;5048381;28;20024;-80
2021/01/27 05:14:34;;;;;;;2.40;2.20;;;6.00;79.50;;;;;;5038369;28;20061;-80
2021/01/27 05:17:06;;;;;;;2.55;2.00;;;6.00;79.50;;;;;;5026439;28;20532;-80
2021/01/27 05:19:33;;;;;;;3.10;2.08;;;6.00;79.60;;;;;;5044191;28;20091;-80
2021/01/27 05:21:59;;;;;;;3.90;2.08;;;6.00;79.50;;;;;;5035789;28;20071;-80
2021/01/27 05:24:25;;;;;;;2.15;1.95;;;6.00;79.50;;;;;;5028033;28;20103;-81
2021/01/27 05:27:03;;;;;;;2.70;2.10;;;6.00;79.50;;;;;;5041791;28;20020;-80
2021/01/27 05:29:31;;;;;;;2.75;1.95;;;6.00;79.60;;;;;;5037480;28;20032;-77
2021/01/27 05:32:16;;;;;;;2.10;1.90;;;6.00;79.50;;;;;;5045363;28;20028;-77
2021/01/27 05:34:51;;;;;;;2.47;2.22;;;6.00;79.60;;;;;;5072637;28;20028;-78
2021/01/27 05:37:29;;;;;;;2.25;2.00;;;6.00;79.50;;;;;;5049976;28;20044;-79
2021/01/27 05:40:06;;;;;;;2.28;2.05;;;6.00;79.60;;;;;;5067845;28;20115;-76
2021/01/27 05:42:35;;;;;;;2.30;2.10;;;5.90;79.60;;;;;;5050905;28;20241;-79
2021/01/27 05:45:29;;;;;;;2.03;1.83;;;5.90;79.50;;;;;;5049411;28;20017;-77
2021/01/27 05:48:11;;;;;;;2.40;2.20;;;5.90;79.60;;;;;;5043131;28;20025;-77
2021/01/27 05:50:39;;;;;;;2.42;1.95;;;5.90;79.50;;;;;;5030958;28;20020;-77
2021/01/27 05:53:18;;;;;;;2.70;2.03;;;6.00;79.60;;;;;;5036171;28;20090;-76
2021/01/27 05:56:08;;;;;;;2.20;1.98;;;5.90;79.60;;;;;;5040307;28;20032;-79
2021/01/27 05:58:40;;;;;;;2.40;2.13;;;6.00;79.70;;;;;;5054609;28;20041;-78
2021/01/27 06:01:37;;;;;;;2.25;2.00;;;5.90;79.50;;;;;;5045708;28;20567;-79
2021/01/27 06:04:12;;;;;;;2.28;2.08;;;5.90;79.70;;;;;;5054510;28;20033;-78
2021/01/27 06:06:42;;;;;;;;;;;5.90;79.60;;;;;;5045527;28;20094;-78
2021/01/27 06:09:08;;;;;;;2.40;1.98;;;5.90;79.50;;;;;;5057503;28;19908;-79
2021/01/27 06:11:34;;;;;;;2.30;2.05;;;5.90;79.30;;;;;;5009831;28;20381;-77
2021/01/27 06:14:15;;;;;;;2.28;2.08;;;5.90;79.50;;;;;;5030095;28;20115;-78
2021/01/27 06:16:45;;;;;;;2.10;1.90;;;5.90;79.70;;;;;;5064295;28;20032;-78
2021/01/27 06:19:19;;;;;;;2.75;2.10;;;5.90;79.60;;;;;;5055359;28;20093;-78
2021/01/27 06:22:22;;;;;;;2.50;2.20;;;5.90;79.70;;;;;;5037829;28;20048;-79
2021/01/27 06:24:53;;;;;;;2.25;1.85;;;5.90;79.70;;;;;;5055313;28;20054;-78
2021/01/27 06:27:41;;;;;;;2.42;1.98;;;5.90;79.60;;;;;;5025919;28;20035;-78
2021/01/27 06:30:42;;;;;;;2.20;1.90;;;5.90;79.60;;;;;;5071144;28;20016;-78
2021/01/27 06:33:32;;;;;;;1.90;1.80;;;5.90;79.60;;;;;;4929804;29;20108;-78
2021/01/27 06:36:00;;;;;;;2.50;2.05;;;5.90;79.70;;;;;;5044197;28;20119;-79
2021/01/27 06:39:07;;;;;;;3.40;2.17;;;5.90;79.60;;;;;;5055104;28;20044;-79
2021/01/27 06:41:45;;;;;;;2.17;1.95;;;5.90;79.80;;;;;;5055193;28;20071;-78
2021/01/27 06:44:31;;;;;;;2.22;1.92;;;5.90;79.60;;;;;;5073059;28;20099;-78
2021/01/27 06:47:13;;;;;;;2.13;1.90;;;5.90;79.80;;;;;;5035043;28;20036;-78
2021/01/27 06:50:03;;;;;;;2.20;2.00;;;5.90;79.70;;;;;;5039996;28;20040;-78
2021/01/27 06:53:06;;;;;;;2.38;1.83;;;5.80;79.70;;;;;;5056861;28;20021;-78
2021/01/27 06:56:00;;;;;;;2.08;1.88;;;5.90;79.80;;;;;;5038585;28;20102;-80
2021/01/27 06:59:02;;;;;;;1.90;1.80;;;5.90;79.60;;;;;;5061910;28;20488;-77
2021/01/27 07:01:40;;;;;;;3.08;2.05;;;5.90;79.80;;;;;;5043149;28;20025;-77
2021/01/27 07:04:15;;;;;;;2.20;2.00;;;5.90;79.70;;;;;;5071925;28;20047;-78
2021/01/27 07:06:50;;;;;;;2.58;1.95;;;5.90;79.70;;;;;;5053647;28;20031;-77
2021/01/27 07:09:39;;;;;;;2.22;2.03;;;5.90;79.80;;;;;;5039355;28;20028;-77
2021/01/27 07:12:20;;;;;;;2.40;2.20;;;5.80;79.70;;;;;;5038466;28;20025;-77
2021/01/27 07:14:57;;;;;;;1.80;1.70;;;5.90;79.80;;;;;;5025166;28;20025;-77
2021/01/27 07:17:23;;;;;;;2.33;2.00;;;5.80;79.60;;;;;;5047697;28;20055;-77
2021/01/27 07:20:07;;;;;;;2.47;2.10;;;5.90;79.70;;;;;;5063831;28;20063;-76
2021/01/27 07:22:59;;;;;;;3.85;2.10;;;5.90;79.80;;;;;;5046013;28;20040;-78
2021/01/27 07:25:58;;;;;;;2.42;2.00;;;5.90;79.80;;;;;;5048547;28;20032;-76
2021/01/27 07:28:34;;;;;;;2.13;1.92;;;5.90;79.70;;;;;;5034616;28;20032;-77
2021/01/27 07:31:32;;;;;;;2.70;2.28;;;5.80;79.60;;;;;;5042429;28;20020;-77
2021/01/27 07:34:13;;;;;;;2.40;2.15;;;5.80;79.70;;;;;;5043642;28;20055;-77
2021/01/27 07:37:02;;;;;;;2.38;2.17;;;5.90;79.70;;;;;;5053552;28;20358;-77
2021/01/27 07:40:05;;;;;;;2.30;2.10;;;5.80;79.70;;;;;;5039794;28;20041;-78
2021/01/27 07:43:19;;;;;;;3.08;2.20;;;5.80;79.70;;;;;;5047730;28;20044;-78
2021/01/27 07:45:51;;;;;;;2.33;2.08;;;5.80;79.70;;;;;;5015893;28;20032;-77
2021/01/27 07:48:31;;;;;;;2.60;2.40;;;5.80;79.60;;;;;;5048392;28;20036;-77
2021/01/27 07:51:24;;;;;;;2.33;2.13;;;5.80;79.80;;;;;;5048441;28;20025;-77
2021/01/27 07:54:05;;;;;;;2.30;2.10;;;5.80;79.70;;;;;;5048355;28;20477;-77
2021/01/27 07:56:38;;;;;;;2.55;2.10;;;5.80;79.70;;;;;;5048430;28;20025;-78
2021/01/27 07:59:14;;;;;;;2.65;2.45;;;5.80;79.70;;;;;;5046521;28;20037;-78
2021/01/27 08:01:48;;;;;;;2.50;2.13;;;5.80;79.70;;;;;;5033928;28;20033;-78
2021/01/27 08:04:48;;;;;;;2.60;2.17;;;5.80;79.70;;;;;;5075305;28;20465;-78
2021/01/27 08:07:23;;;;;;;2.83;2.13;;;5.80;79.80;;;;;;5067150;28;20024;-78
2021/01/27 08:09:51;;;;;;;2.38;2.13;;;5.80;79.60;;;;;;5043647;28;20029;-78
2021/01/27 08:12:39;;;;;;;2.17;1.98;;;5.80;79.60;;;;;;5065889;28;20087;-78
2021/01/27 08:15:11;;;;;;;2.65;2.15;;;5.80;79.70;;;;;;5041936;28;20095;-77
2021/01/27 08:18:00;;;;;;;3.30;2.33;;;5.80;79.70;;;;;;5038267;28;20580;-79
2021/01/27 08:20:46;;;;;;;2.55;2.10;;;5.80;79.70;;;;;;5048917;28;20040;-78
2021/01/27 08:23:21;;;;;;;3.15;2.38;;;5.80;79.80;;;;;;5038551;28;20055;-79
2021/01/27 08:25:53;;;;;;;2.92;2.20;;;5.80;79.70;;;;;;5057707;28;20079;-77
2021/01/27 08:28:37;;;;;;;2.45;2.25;;;5.80;79.70;;;;;;5056623;28;20033;-79
2021/01/27 08:31:09;;;;;;;2.42;2.22;;;5.80;79.80;;;;;;5047552;28;20064;-79
2021/01/27 08:33:47;;;;;;;2.50;2.25;;;5.80;79.70;;;;;;5054054;28;20025;-79
2021/01/27 08:36:18;;;;;;;2.70;2.50;;;5.80;79.80;;;;;;5045268;28;20021;-76
2021/01/27 08:38:56;;;;;;;2.80;2.50;;;5.80;79.70;;;;;;5029339;28;20041;-78
2021/01/27 08:41:40;;;;;;;2.22;2.03;;;5.80;79.80;;;;;;5048899;28;20029;-78
2021/01/27 08:44:25;;;;;;;2.90;2.20;;;5.80;79.90;;;;;;5032352;28;20021;-78
2021/01/27 08:46:59;;;;;;;2.40;2.20;;;5.80;79.70;;;;;;5018840;28;20425;-77
2021/01/27 08:49:37;;;;;;;2.95;2.60;;;5.80;79.80;;;;;;5048002;28;20029;-80
2021/01/27 08:52:09;;;;;;;2.85;2.60;;;5.80;79.80;;;;;;5023370;28;20033;-77
2021/01/27 08:54:35;;;;;;;2.92;2.63;;;5.80;79.80;;;;;;5036942;28;20385;-77
2021/01/27 08:57:22;;;;;;;2.90;2.40;;;5.80;79.70;;;;;;5023993;28;20029;-77
2021/01/27 08:59:52;;;;;;;2.78;2.25;;;5.80;79.90;;;;;;5047539;28;20037;-77
2021/01/27 09:02:46;;;;;;;2.92;2.50;;;5.80;79.80;;;;;;5002000;28;20029;-79
2021/01/27 09:05:22;;;;;;;2.58;2.22;;;5.80;79.90;;;;;;5007765;28;20387;-77
2021/01/27 09:07:55;;;;;;;2.53;2.33;;;5.80;79.80;;;;;;5047459;28;20029;-77
2021/01/27 09:10:47;;;;;;;3.80;2.60;;;5.80;79.80;;;;;;5027998;28;20079;-76
2021/01/27 09:13:39;;;;;;;3.33;2.75;;;5.80;79.80;;;;;;5023567;28;20175;-77
2021/01/27 09:16:19;;;;;;;3.67;3.03;;;5.80;79.90;;;;;;5021953;28;20540;-78
2021/01/27 09:18:57;;;;;;;3.95;3.05;;;5.80;79.80;;;;;;5030175;28;20520;-76
2021/01/27 09:21:24;;;;;;;3.83;3.30;;;5.80;79.80;;;;;;5017353;28;20489;-76
2021/01/27 09:24:07;;;;;;;4.13;3.40;;;5.80;79.80;;;;;;5003579;28;20029;-76
2021/01/27 09:26:41;;;;;;;3.75;3.33;;;5.80;79.90;;;;;;5030443;28;20025;-77
2021/01/27 09:29:12;;;;;;;3.70;3.22;;;5.80;79.80;;;;;;5017251;28;20114;-77
2021/01/27 09:31:37;;;;;;;4.53;3.13;;;5.90;80.50;;;;;;5041107;28;20052;-78
2021/01/27 09:34:32;;;;;;;3.95;3.50;;;5.90;79.80;;;;;;5016731;28;20064;-77
2021/01/27 09:37:02;;;;;;;4.13;3.50;;;5.90;80.00;;;;;;5031327;28;20048;-77
2021/01/27 09:39:37;;;;;;;4.07;3.30;;;5.90;79.80;;;;;;5037228;28;20041;-77
2021/01/27 09:42:18;;;;;;;4.07;3.00;;;5.90;79.90;;;;;;5066944;28;20056;-76
2021/01/27 09:44:53;;;;;;;3.65;3.08;;;5.90;79.90;;;;;;5042513;28;20055;-77
2021/01/27 09:47:19;;;;;;;3.92;3.10;;;5.90;79.80;;;;;;5053162;28;20048;-78
2021/01/27 09:49:51;;;;;;;3.55;2.90;;;5.90;79.80;;;;;;5019736;28;20406;-76
2021/01/27 09:52:18;;;;;;;3.65;3.10;;;5.90;79.90;;;;;;5070595;28;20393;-77
2021/01/27 09:54:50;;;;;;;3.55;3.03;;;5.90;80.50;;;;;;5056446;28;20415;-77
2021/01/27 09:57:19;;;;;;;3.42;3.00;;;5.90;79.90;;;;;;5039599;28;20115;-78
2021/01/27 09:59:52;;;;;;;3.50;3.00;;;5.90;79.90;;;;;;5040230;28;20037;-77
2021/01/27 10:02:27;;;;;;;3.70;3.05;;;5.90;79.90;;;;;;5041624;28;20029;-76
2021/01/27 10:04:52;;;;;;;;;;;5.90;79.90;;;;;;5044240;28;20048;-76
2021/01/27 10:07:23;;;;;;;2.78;2.55;;;5.90;79.80;;;;;;5039531;28;19927;-77
2021/01/27 10:10:07;;;;;;;2.85;2.55;;;5.90;79.60;;;;;;5065479;28;20108;-76
2021/01/27 10:12:34;;;;;;;3.55;2.80;;;5.90;79.80;;;;;;5038612;28;20024;-77
2021/01/27 10:15:30;;;;;;;4.55;2.95;;;5.90;79.80;;;;;;5052543;28;20021;-76
2021/01/27 10:18:19;;;;;;;3.28;2.95;;;5.90;80.00;;;;;;5066952;28;20453;-78
2021/01/27 10:20:47;;;;;;;3.40;3.10;;;5.90;79.90;;;;;;5044379;28;20031;-76
2021/01/27 10:23:32;;;;;;;3.80;3.20;;;6.00;79.90;;;;;;5036268;28;20037;-78
2021/01/27 10:26:35;;;;;;;3.50;2.90;;;6.00;79.90;;;;;;5057942;28;20113;-76
2021/01/27 10:29:16;;;;;;;3.10;2.60;;;6.00;80.10;;;;;;5055553;28;20162;-78
2021/01/27 10:31:54;;;;;;;3.47;2.80;;;6.00;79.90;;;;;;5024860;28;20029;-77
2021/01/27 10:34:46;;;;;;;3.78;3.05;;;6.00;80.00;;;;;;5054342;28;20142;-77
2021/01/27 10:37:45;;;;;;;3.35;2.63;;;6.00;80.10;;;;;;5070719;28;20465;-77
2021/01/27 10:40:12;;;;;;;3.55;3.10;;;6.00;80.00;;;;;;5046366;28;20744;-77
2021/01/27 10:42:44;;;;;;;3.72;3.03;;;6.00;79.90;;;;;;5055041;28;20419;-77
2021/01/27 10:45:36;;;;;;;3.55;3.00;;;6.00;80.00;;;;;;5071342;28;20025;-79
2021/01/27 10:48:10;;;;;;;3.70;3.00;;;6.00;80.10;;;;;;5063852;28;20024;-77
2021/01/27 10:50:45;;;;;;;3.50;3.03;;;6.00;80.00;;;;;;5033193;28;20461;-79
2021/01/27 10:53:13;;;;;;;3.38;3.00;;;6.10;80.10;;;;;;5035637;28;20024;-78
2021/01/27 10:55:42;;;;;;;4.25;3.50;;;6.10;80.00;;;;;;5050562;28;20040;-77
2021/01/27 10:58:10;;;;;;;4.10;3.42;;;6.00;79.90;;;;;;5052579;28;20032;-77
2021/01/27 11:00:37;;;;;;;4.13;3.08;;;6.10;80.00;;;;;;5038186;28;20029;-77
2021/01/27 11:03:04;;;;;;;3.88;2.90;;;6.10;80.00;;;;;;5065451;28;20033;-77
2021/01/27 11:05:30;;;;;;;3.97;3.20;;;6.10;80.00;;;;;;5051642;28;20035;-78
2021/01/27 11:07:57;;;;;;;3.70;3.28;;;6.10;80.00;;;;;;5034628;28;20033;-78
2021/01/27 11:10:23;;;;;;;3.42;3.03;;;6.10;80.00;;;;;;5034845;28;20198;-76
2021/01/27 11:12:49;;;;;;;3.83;3.30;;;6.20;80.10;;;;;;5037180;28;20040;-77
2021/01/27 11:15:14;;;;;;;3.95;3.22;;;6.20;80.00;;;;;;5034274;28;20037;-77
2021/01/27 11:17:40;;;;;;;3.92;3.28;;;6.20;80.00;;;;;;5024021;28;20033;-76
2021/01/27 11:20:08;;;;;;;4.38;3.50;;;6.20;80.10;;;;;;5040480;28;20032;-77
2021/01/27 11:22:33;;;;;;;4.28;3.45;;;6.20;80.10;;;;;;5030959;28;20025;-76
2021/01/27 11:24:59;;;;;;;4.30;3.40;;;6.20;80.00;;;;;;5030394;28;20047;-76
2021/01/27 11:27:25;;;;;;;4.25;3.42;;;6.20;80.00;;;;;;5028955;28;20488;-76
2021/01/27 11:29:51;;;;;;;4.53;3.33;;;6.20;80.00;;;;;;5028285;28;20040;-77
2021/01/27 11:32:16;;;;;;;3.75;3.15;;;6.20;80.00;;;;;;5025741;28;20043;-79
2021/01/27 11:34:42;;;;;;;4.40;3.40;;;6.20;80.00;;;;;;5066633;28;20596;-77
2021/01/27 11:37:10;;;;;;;4.53;3.47;;;6.20;80.00;;;;;;5028627;28;20047;-78
2021/01/27 11:39:35;;;;;;;4.50;3.75;;;6.30;80.00;;;;;;4990823;28;20124;-78
2021/01/27 11:42:02;;;;;;;4.70;3.88;;;6.30;80.00;;;;;;5012942;28;20513;-78
2021/01/27 11:44:28;;;;;;;4.55;3.72;;;6.30;80.00;;;;;;5042669;28;20075;-77
2021/01/27 11:46:53;;;;;;;4.43;3.63;;;6.30;80.00;;;;;;5008040;28;20064;-77
2021/01/27 11:49:19;;;;;;;5.07;4.18;;;6.30;80.00;;;;;;5009739;28;20107;-78
2021/01/27 11:51:45;;;;;;;4.72;3.75;;;6.30;80.00;;;;;;4998352;28;20091;-77
2021/01/27 11:54:11;;;;;;;4.70;4.03;;;6.30;80.00;;;;;;5030015;28;20030;-77
2021/01/27 11:56:37;;;;;;;5.22;4.03;;;6.30;80.00;;;;;;5034228;28;20029;-77
2021/01/27 11:59:03;;;;;;;5.07;4.05;;;6.40;80.70;;;;;;5033667;28;20049;-77
2021/01/27 12:01:30;;;;;;;5.13;4.20;;;6.30;80.60;;;;;;5034159;28;20072;-76
2021/01/27 12:03:56;;;;;;;5.68;4.07;;;6.40;80.00;;;;;;5015080;28;20033;-77
2021/01/27 12:06:22;;;;;;;5.03;4.00;;;6.40;80.00;;;;;;5034107;28;20055;-77
2021/01/27 12:08:48;;;;;;;5.15;4.07;;;6.40;80.00;;;;;;5018016;28;20033;-77
2021/01/27 12:11:14;;;;;;;5.40;4.20;;;6.40;80.00;;;;;;5029567;28;20099;-77
2021/01/27 12:13:42;;;;;;;5.20;4.38;;;6.40;80.00;;;;;;5027720;28;20455;-77
2021/01/27 12:16:07;;;;;;;5.00;4.03;;;6.50;80.00;;;;;;5010088;28;20033;-77
2021/01/27 12:18:33;;;;;;;5.75;4.70;;;6.50;80.00;;;;;;5017340;28;20044;-76
2021/01/27 12:20:59;;;;;;;5.28;4.10;;;6.50;80.00;;;;;;5020866;28;20029;-76
2021/01/27 12:23:24;;;;;;;6.03;5.00;;;6.50;80.00;;;;;;4993873;28;20374;-76
2021/01/27 12:25:50;;;;;;;5.47;3.83;;;6.50;80.00;;;;;;4986937;28;20029;-76
2021/01/27 12:28:16;;;;;;;6.15;4.80;;;6.50;80.00;;;;;;5011769;28;20177;-77
2021/01/27 12:30:41;;;;;;;5.63;4.40;;;6.50;79.90;;;;;;5051829;28;20484;-77
2021/01/27 12:33:09;;;;;;;5.80;4.75;;;6.50;79.90;;;;;;5033027;28;20470;-76
2021/01/27 12:35:35;;;;;;;6.22;4.88;;;6.60;79.90;;;;;;5017385;28;20462;-77
2021/01/27 12:38:01;;;;;;;6.28;4.95;;;6.60;79.90;;;;;;5033389;28;20051;-77
2021/01/27 12:40:26;;;;;;;6.30;4.95;;;6.60;79.90;;;;;;5016438;28;20037;-77
2021/01/27 12:42:52;;;;;;;5.70;4.72;;;6.60;80.00;;;;;;4997810;28;20041;-76
2021/01/27 12:45:22;;;;;;;6.30;4.88;;;6.60;79.90;;;;;;5046082;28;20100;-77
2021/01/27 12:47:47;;;;;;;6.10;4.90;;;6.60;79.90;;;;;;5020466;28;20075;-76
2021/01/27 12:50:14;;;;;;;6.05;4.88;;;6.60;79.80;;;;;;5026954;28;20033;-77
2021/01/27 12:52:40;;;;;;;6.32;4.85;;;6.70;79.90;;;;;;5017478;28;20112;-77
2021/01/27 12:55:09;;;;;;;6.07;4.72;;;6.60;79.80;;;;;;5008975;28;20025;-77
2021/01/27 12:57:39;;;;;;;6.43;5.32;;;6.70;79.80;;;;;;4999262;28;20045;-76
2021/01/27 13:00:07;;;;;;;6.25;5.00;;;6.70;79.80;;;;;;5024679;28;20163;-78
2021/01/27 13:02:33;;;;;;;6.25;4.97;;;6.70;79.80;;;;;;5003546;28;20034;-77
2021/01/27 13:04:59;;;;;;;6.93;5.45;;;6.70;79.80;;;;;;5037186;28;20044;-77
2021/01/27 13:07:25;;;;;;;7.25;5.10;;;6.70;79.90;;;;;;5028045;28;20874;-77
2021/01/27 13:09:51;;;;;;;6.03;4.97;;;6.80;79.80;;;;;;5037277;28;20111;-77
2021/01/27 13:12:17;;;;;;;6.22;4.88;;;6.80;79.80;;;;;;5000848;28;20678;-77
2021/01/27 13:14:42;;;;;;;6.70;5.18;;;6.80;79.80;;;;;;5018990;28;20032;-78
2021/01/27 13:17:08;;;;;;;6.93;5.82;;;6.80;79.80;;;;;;5013364;28;20030;-77
2021/01/27 13:19:34;;;;;;;6.43;5.35;;;6.80;79.80;;;;;;5047071;28;20112;-77
2021/01/27 13:21:59;;;;;;;7.22;5.60;;;6.80;79.80;;;;;;5004389;28;20500;-77
2021/01/27 13:24:25;;;;;;;6.70;5.45;;;6.80;79.80;;;;;;5007313;28;20112;-77
2021/01/27 13:26:51;;;;;;;6.53;5.30;;;6.90;79.80;;;;;;5033751;28;21584;-77
2021/01/27 13:29:16;;;;;;;6.93;5.53;;;6.90;79.80;;;;;;5019811;28;20048;-77
2021/01/27 13:31:42;;;;;;;6.75;5.32;;;6.90;79.80;;;;;;5035891;28;20033;-77
2021/01/27 13:34:08;;;;;;;6.88;5.30;;;6.90;79.80;;;;;;5035738;28;20358;-77